createdAt,value
2018-09-17T00:15:02.250Z,93.50
2018-09-17T00:20:05.389Z,93.40
2018-09-17T00:25:08.486Z,93.50
2018-09-17T00:30:11.581Z,94.00
2018-09-17T00:35:15.185Z,93.90
2018-09-17T00:40:18.245Z,94.00
2018-09-17T00:45:21.318Z,93.90
2018-09-17T00:50:24.404Z,93.50
2018-09-17T00:55:27.487Z,93.60
2018-09-17T01:00:30.554Z,93.90
2018-09-17T01:05:33.637Z,93.60
2018-09-17T01:10:36.712Z,93.20
2018-09-17T01:15:39.789Z,93.50
2018-09-17T01:20:42.870Z,93.30
2018-09-17T01:25:45.952Z,93.70
2018-09-17T01:30:49.025Z,94.20
2018-09-17T01:35:52.095Z,94.50
2018-09-17T01:40:55.179Z,94.10
2018-09-17T01:45:58.240Z,94.10
2018-09-17T01:51:01.323Z,94.00
2018-09-17T02:12:28.942Z,94.90
2018-09-17T02:17:32.044Z,95.00
2018-09-17T02:22:35.137Z,94.70
2018-09-17T02:27:38.282Z,94.70
2018-09-17T02:32:41.684Z,94.90
2018-09-17T02:37:44.789Z,94.90
2018-09-17T02:42:49.805Z,95.40
2018-09-17T02:47:52.911Z,94.90
2018-09-17T02:52:56.018Z,95.20
2018-09-17T02:57:59.103Z,95.20
2018-09-17T03:03:02.198Z,95.30
2018-09-17T03:08:05.299Z,95.60
2018-09-17T03:29:31.872Z,95.10
2018-09-17T03:34:34.978Z,95.10
2018-09-17T03:39:38.070Z,95.20
2018-09-17T03:44:41.157Z,95.30
2018-09-17T03:49:44.285Z,95.70
2018-09-17T03:54:47.410Z,95.50
2018-09-17T03:59:50.479Z,95.40
2018-09-17T04:04:53.628Z,95.60
2018-09-17T04:09:56.698Z,95.30
2018-09-17T04:14:59.817Z,95.10
2018-09-17T04:20:02.909Z,95.10
2018-09-17T04:25:06.015Z,94.90
2018-09-17T04:30:09.126Z,94.90
2018-09-17T04:35:12.292Z,95.20
2018-09-17T04:40:15.449Z,94.70
2018-09-17T04:45:18.603Z,94.90
2018-09-17T04:50:21.789Z,94.80
2018-09-17T05:11:48.971Z,94.40
2018-09-17T05:16:52.080Z,94.80
2018-09-17T05:21:55.216Z,94.90
2018-09-17T05:26:58.417Z,95.20
2018-09-17T05:32:01.450Z,96.00
2018-09-17T05:53:28.672Z,97.70
2018-09-17T05:58:31.871Z,99.00
2018-09-17T06:03:34.987Z,98.70
2018-09-17T06:08:38.112Z,99.30
2018-09-17T06:13:41.280Z,98.60
2018-09-17T06:18:44.489Z,99.50
2018-09-17T06:23:47.587Z,99.00
2018-09-17T06:28:50.789Z,99.60
2018-09-17T06:50:18.245Z,99.40
2018-09-17T07:11:44.315Z,99.90
2018-09-17T07:33:11.319Z,99.20
2018-09-17T07:38:14.431Z,98.80
2018-09-17T07:43:17.547Z,98.80
2018-09-17T07:48:20.652Z,98.60
2018-09-17T07:53:23.750Z,98.50
2018-09-17T07:58:26.896Z,98.10
2018-09-17T08:03:29.998Z,98.40
2018-09-17T08:08:33.171Z,97.90
2018-09-17T08:13:36.266Z,97.00
2018-09-17T08:18:39.393Z,96.00
2018-09-17T08:23:42.500Z,95.50
2018-09-17T08:28:45.651Z,95.30
2018-09-17T08:33:48.719Z,94.40
2018-09-17T08:38:51.809Z,94.20
2018-09-17T08:43:54.905Z,93.80
2018-09-17T08:48:57.998Z,93.50
2018-09-17T08:54:01.063Z,93.80
2018-09-17T08:59:05.130Z,93.50
2018-09-17T09:04:25.763Z,92.60
2018-09-17T09:09:28.850Z,91.40
2018-09-17T09:14:38.664Z,90.90
2018-09-17T09:19:41.748Z,91.20
2018-09-17T09:24:44.860Z,88.60
2018-09-17T09:46:11.968Z,89.30
2018-09-17T09:51:15.080Z,82.30
2018-09-17T09:56:18.179Z,81.50
2018-09-17T10:01:27.221Z,79.20
2018-09-17T10:22:55.178Z,72.80
2018-09-17T10:27:58.299Z,71.30
2018-09-17T10:33:01.404Z,69.60
2018-09-17T10:54:28.889Z,62.70
2018-09-17T10:59:31.991Z,58.90
2018-09-17T11:04:35.073Z,60.00
2018-09-17T11:09:38.240Z,56.30
2018-09-17T11:31:06.600Z,50.60
2018-09-17T11:36:09.711Z,52.00
2018-09-17T11:41:12.860Z,50.70
2018-09-17T11:46:15.898Z,50.50
2018-09-17T11:51:18.983Z,46.90
2018-09-17T11:56:22.077Z,47.70
2018-09-17T12:01:30.524Z,46.20
2018-09-17T12:06:39.070Z,46.40
2018-09-17T12:11:42.438Z,47.50
2018-09-17T12:16:45.546Z,45.70
2018-09-17T12:21:48.643Z,42.90
2018-09-17T12:26:51.727Z,45.80
2018-09-17T12:31:54.808Z,44.30
2018-09-17T12:36:57.923Z,43.50
2018-09-17T12:42:01.005Z,42.90
2018-09-17T12:47:04.086Z,40.40
2018-09-17T12:52:07.174Z,42.40
2018-09-17T12:57:17.071Z,44.40
2018-09-17T13:02:20.105Z,43.10
2018-09-17T13:07:23.209Z,42.50
2018-09-17T13:12:26.296Z,41.50
2018-09-17T13:17:29.422Z,41.30
2018-09-17T13:22:32.502Z,40.10
2018-09-17T13:27:35.605Z,38.30
2018-09-17T13:32:38.689Z,41.80
2018-09-17T13:37:41.788Z,41.60
2018-09-17T13:42:44.891Z,42.30
2018-09-17T13:47:47.998Z,40.30
2018-09-17T13:52:51.119Z,40.10
2018-09-17T13:57:54.207Z,40.20
2018-09-17T14:02:57.314Z,41.30
2018-09-17T14:08:00.386Z,41.40
2018-09-17T14:13:03.518Z,41.00
2018-09-17T14:18:06.647Z,40.00
2018-09-17T14:23:09.723Z,40.50
2018-09-17T14:44:38.933Z,41.00
2018-09-17T14:49:42.026Z,40.90
2018-09-17T14:54:45.308Z,40.10
2018-09-17T15:16:11.987Z,41.30
2018-09-17T15:21:15.031Z,40.30
2018-09-17T15:26:18.563Z,41.90
2018-09-17T15:31:21.815Z,41.00
2018-09-17T15:36:25.011Z,42.20
2018-09-17T15:41:28.259Z,42.30
2018-09-17T16:02:55.350Z,44.10
2018-09-17T16:07:59.206Z,45.20
2018-09-17T16:13:02.270Z,46.10
2018-09-17T16:18:05.382Z,46.70
2018-09-17T16:39:32.073Z,47.00
2018-09-17T16:44:35.172Z,47.80
2018-09-17T16:49:38.266Z,48.40
2018-09-17T16:54:41.358Z,48.70
2018-09-17T16:59:44.450Z,49.80
2018-09-17T17:04:47.583Z,51.10
2018-09-17T17:26:15.095Z,54.40
2018-09-17T17:31:18.193Z,55.40
2018-09-17T17:36:21.301Z,56.40
2018-09-17T17:41:24.418Z,57.20
2018-09-17T18:02:51.211Z,60.40
2018-09-17T18:07:54.308Z,62.50
2018-09-17T18:29:23.071Z,68.80
2018-09-17T18:50:50.983Z,72.80
2018-09-17T19:12:19.494Z,74.50
2018-09-17T19:33:46.975Z,77.20
2018-09-17T19:38:55.468Z,78.10
2018-09-17T20:00:23.104Z,80.10
2018-09-17T20:21:50.175Z,79.00
2018-09-17T20:43:17.085Z,79.60
2018-09-17T20:48:20.359Z,80.90
2018-09-17T20:53:23.461Z,80.40
2018-09-17T20:58:26.575Z,79.40
2018-09-17T21:03:29.668Z,81.30
2018-09-17T21:08:32.785Z,81.70
2018-09-17T21:13:35.903Z,82.70
2018-09-17T21:35:02.404Z,85.20
2018-09-17T21:40:05.537Z,84.70
2018-09-17T21:45:09.831Z,85.70
2018-09-17T21:50:12.910Z,84.20
2018-09-17T21:55:16.003Z,84.10
2018-09-17T22:00:19.096Z,88.00
2018-09-17T22:05:22.193Z,86.00
2018-09-17T22:10:25.286Z,86.50
2018-09-17T22:31:52.686Z,89.10
2018-09-17T22:36:55.801Z,90.00
2018-09-17T22:41:58.885Z,90.40
2018-09-17T22:47:01.960Z,89.40
2018-09-17T22:52:05.055Z,90.40
2018-09-17T22:57:08.293Z,90.30
2018-09-17T23:02:11.379Z,90.60
2018-09-17T23:07:14.471Z,90.20
2018-09-17T23:12:17.618Z,90.40
2018-09-17T23:17:20.702Z,90.50
2018-09-17T23:22:23.800Z,90.20
2018-09-17T23:27:27.002Z,90.30
2018-09-17T23:48:54.898Z,90.20
2018-09-17T23:53:57.982Z,90.40
2018-09-17T23:59:01.074Z,90.90
